AFA weather

Suboficial Ay Santiago Germano Airport
San Rafael, Mendoza Province, Argentina

Public forecast

Using degrees Celsius for public forecast. Weather courtesy of forecast.io.

METAR (pilot weather report)

Retrieved 2019/05/21 15:00 UTC (1 hour ago):

SAMR 211500Z 18010KT 2000 BRRA BKN006 OVC020 03/03 Q1030

TAF (pilot weather forecast)

Forecast is more than 12 hours old.

Retrieved 2019/04/26 06:15 UTC (25 days ago):

TAF TAF SAMR 260500Z 2606/2706 14005KT 6000 DZBR BKN020 BKN030 TN08/2610ZTX14/2620Z PROB40 TEMPO 2609/2613 09005KT 3000 BR OVC010 BECMG 2614/2616 05010KT 9999 SCT030